createdAt,value
2023-01-29T00:01:56.153Z,6.88
2023-01-29T00:04:23.333Z,5.93
2023-01-29T00:06:50.367Z,7.25
2023-01-29T00:09:17.308Z,6.88
2023-01-29T00:11:44.352Z,7.45
2023-01-29T00:14:11.277Z,8.10
2023-01-29T00:16:38.141Z,7.93
2023-01-29T00:19:05.473Z,7.05
2023-01-29T00:21:32.461Z,7.15
2023-01-29T00:24:00.086Z,7.65
2023-01-29T00:26:27.685Z,6.57
2023-01-29T00:28:55.329Z,6.90
2023-01-29T00:31:24.618Z,6.97
2023-01-29T00:33:51.761Z,7.25
2023-01-29T00:36:20.392Z,7.30
2023-01-29T00:38:54.799Z,6.57
2023-01-29T00:41:40.607Z,6.82
2023-01-29T00:44:26.615Z,6.15
2023-01-29T00:46:53.645Z,6.45
2023-01-29T00:49:20.820Z,6.70
2023-01-29T00:52:07.721Z,6.72
2023-01-29T00:54:34.676Z,6.15
2023-01-29T00:57:02.665Z,7.05
2023-01-29T00:59:29.628Z,6.30
2023-01-29T01:02:15.505Z,7.10
2023-01-29T01:04:42.317Z,7.35
2023-01-29T01:07:09.218Z,7.20
2023-01-29T01:09:55.717Z,6.50
2023-01-29T01:12:22.742Z,7.25
2023-01-29T01:14:49.821Z,6.80
2023-01-29T01:17:16.886Z,6.60
2023-01-29T01:19:43.731Z,6.88
2023-01-29T01:22:11.016Z,6.60
2023-01-29T01:24:38.038Z,5.78
2023-01-29T01:27:05.871Z,6.35
2023-01-29T01:29:32.728Z,7.03
2023-01-29T01:32:00.012Z,5.50
2023-01-29T01:34:27.215Z,6.32
2023-01-29T01:36:58.354Z,6.88
2023-01-29T01:39:25.544Z,7.35
2023-01-29T01:41:53.667Z,7.10
2023-01-29T01:44:56.799Z,7.22
2023-01-29T01:47:46.919Z,7.10
2023-01-29T01:50:32.449Z,6.57
2023-01-29T01:53:12.443Z,6.30
2023-01-29T01:55:47.397Z,5.95
2023-01-29T01:58:22.152Z,6.35
2023-01-29T02:00:49.256Z,6.60
2023-01-29T02:03:36.140Z,6.18
2023-01-29T02:06:21.438Z,6.65
2023-01-29T02:09:24.820Z,6.28
2023-01-29T02:11:51.847Z,6.50
2023-01-29T02:14:22.151Z,6.95
2023-01-29T02:16:49.551Z,6.18
2023-01-29T02:19:48.019Z,6.03
2023-01-29T02:22:42.115Z,6.85
2023-01-29T02:25:17.988Z,6.70
2023-01-29T02:28:06.809Z,6.10
2023-01-29T02:30:38.007Z,7.65
2023-01-29T02:33:24.637Z,6.80
2023-01-29T02:36:34.935Z,7.80
2023-01-29T02:39:24.431Z,7.47
2023-01-29T02:42:02.942Z,7.00
2023-01-29T02:44:55.950Z,6.38
2023-01-29T02:47:31.172Z,7.22
2023-01-29T02:50:05.557Z,6.93
2023-01-29T02:52:50.858Z,6.93
2023-01-29T02:55:41.134Z,6.07
2023-01-29T02:58:32.439Z,7.78
2023-01-29T03:01:16.029Z,5.72
2023-01-29T03:03:56.531Z,6.28
2023-01-29T03:06:32.634Z,5.90
2023-01-29T03:09:02.553Z,6.93
2023-01-29T03:11:38.214Z,6.78
2023-01-29T03:14:54.648Z,6.90
2023-01-29T03:17:26.476Z,6.35
2023-01-29T03:19:54.351Z,7.15
2023-01-29T03:22:23.343Z,7.32
2023-01-29T03:25:17.866Z,6.40
2023-01-29T03:28:16.295Z,7.82
2023-01-29T03:31:07.622Z,7.97
2023-01-29T03:33:42.439Z,7.45
2023-01-29T03:36:14.998Z,7.50
2023-01-29T03:38:42.279Z,7.57
2023-01-29T03:41:26.427Z,6.75
2023-01-29T03:44:10.279Z,7.53
2023-01-29T03:46:50.567Z,7.72
2023-01-29T03:49:39.140Z,7.65
2023-01-29T03:52:15.014Z,7.90
2023-01-29T03:55:06.870Z,8.25
2023-01-29T03:57:51.525Z,6.40
2023-01-29T04:03:09.698Z,7.07
2023-01-29T04:06:01.675Z,7.47
2023-01-29T04:08:32.634Z,7.80
2023-01-29T04:11:02.083Z,7.95
2023-01-29T04:13:33.695Z,7.43
2023-01-29T04:16:02.436Z,7.50
2023-01-29T04:18:29.375Z,8.45
2023-01-29T04:20:56.566Z,7.20
2023-01-29T04:23:26.041Z,8.23
2023-01-29T04:26:21.937Z,7.90
2023-01-29T04:29:22.057Z,7.60
2023-01-29T04:31:57.819Z,7.20
2023-01-29T04:34:47.452Z,7.80
2023-01-29T04:37:25.225Z,8.13
2023-01-29T04:40:16.318Z,7.57
2023-01-29T04:43:12.044Z,8.15
2023-01-29T04:46:06.631Z,8.00
2023-01-29T04:48:46.340Z,7.30
2023-01-29T04:51:30.305Z,8.52
2023-01-29T04:54:12.850Z,8.10
2023-01-29T04:56:53.371Z,7.07
2023-01-29T04:59:28.200Z,8.32
2023-01-29T05:01:55.701Z,7.70
2023-01-29T05:04:24.156Z,8.05
2023-01-29T05:06:52.122Z,7.22
2023-01-29T05:09:20.407Z,7.55
2023-01-29T05:11:48.397Z,7.78
2023-01-29T05:14:18.283Z,7.95
2023-01-29T05:16:49.542Z,7.57
2023-01-29T05:19:17.533Z,7.38
2023-01-29T05:21:48.385Z,7.53
2023-01-29T05:24:24.059Z,7.30
2023-01-29T05:27:11.996Z,8.35
2023-01-29T05:29:42.081Z,7.38
2023-01-29T05:32:08.877Z,8.02
2023-01-29T05:34:35.767Z,7.32
2023-01-29T05:37:02.881Z,8.13
2023-01-29T05:39:29.787Z,8.45
2023-01-29T05:41:59.424Z,7.55
2023-01-29T05:44:26.409Z,9.07
2023-01-29T05:46:53.383Z,8.48
2023-01-29T05:49:20.723Z,7.55
2023-01-29T05:51:47.576Z,8.10
2023-01-29T05:54:14.730Z,7.78
2023-01-29T05:56:41.764Z,8.90
2023-01-29T05:59:08.606Z,8.18
2023-01-29T06:01:35.571Z,8.55
2023-01-29T06:04:02.472Z,8.73
2023-01-29T06:06:29.294Z,7.50
2023-01-29T06:08:56.945Z,7.03
2023-01-29T06:11:24.033Z,8.73
2023-01-29T06:13:50.933Z,8.88
2023-01-29T06:16:17.805Z,8.20
2023-01-29T06:18:44.718Z,8.15
2023-01-29T06:21:13.801Z,8.77
2023-01-29T06:23:41.044Z,9.68
2023-01-29T06:26:13.532Z,8.70
2023-01-29T06:28:40.604Z,8.40
2023-01-29T06:31:26.503Z,8.45
2023-01-29T06:33:55.852Z,8.77
2023-01-29T06:36:22.816Z,9.70
2023-01-29T06:38:49.646Z,8.95
2023-01-29T06:41:22.733Z,8.82
2023-01-29T06:43:49.618Z,8.35
2023-01-29T06:46:16.583Z,8.10
2023-01-29T06:48:43.499Z,8.30
2023-01-29T06:51:11.320Z,10.18
2023-01-29T06:53:39.403Z,9.13
2023-01-29T06:56:07.445Z,9.80
2023-01-29T06:58:36.367Z,8.30
2023-01-29T07:01:08.194Z,9.52
2023-01-29T07:03:35.181Z,8.60
2023-01-29T07:06:02.700Z,8.73
2023-01-29T07:08:29.716Z,9.27
2023-01-29T07:11:02.194Z,8.73
2023-01-29T07:13:29.352Z,8.57
2023-01-29T07:16:00.601Z,9.05
2023-01-29T07:18:29.073Z,9.02
2023-01-29T07:20:56.245Z,8.95
2023-01-29T07:23:23.807Z,9.40
2023-01-29T07:25:51.184Z,9.18
2023-01-29T07:28:18.882Z,8.57
2023-01-29T07:30:45.758Z,9.45
2023-01-29T07:33:13.064Z,8.07
2023-01-29T07:35:41.672Z,8.65
2023-01-29T07:38:09.722Z,8.70
2023-01-29T07:40:37.022Z,9.98
2023-01-29T07:43:06.784Z,8.98
2023-01-29T07:45:38.544Z,9.23
2023-01-29T07:48:09.977Z,7.97
2023-01-29T07:50:37.019Z,8.70
2023-01-29T07:53:03.940Z,8.65
2023-01-29T07:55:33.683Z,8.00
2023-01-29T07:58:02.477Z,8.50
2023-01-29T08:00:31.352Z,8.85
2023-01-29T08:03:24.527Z,8.98
2023-01-29T08:05:51.448Z,9.52
2023-01-29T08:08:19.348Z,9.45
2023-01-29T08:10:46.352Z,9.63
2023-01-29T08:13:13.211Z,9.63
2023-01-29T08:15:44.296Z,9.65
2023-01-29T08:18:11.689Z,8.73
2023-01-29T08:20:38.638Z,9.45
2023-01-29T08:23:10.241Z,9.20
2023-01-29T08:25:37.197Z,8.65
2023-01-29T08:28:04.919Z,8.45
2023-01-29T08:30:34.052Z,9.10
2023-01-29T08:33:01.409Z,9.68
2023-01-29T08:35:28.372Z,10.20
2023-01-29T08:37:58.494Z,8.15
2023-01-29T08:40:26.334Z,8.07
2023-01-29T08:42:53.197Z,8.25
2023-01-29T08:45:20.018Z,8.43
2023-01-29T08:47:50.425Z,9.75
2023-01-29T08:50:18.386Z,9.05
2023-01-29T08:52:45.892Z,8.60
2023-01-29T08:55:13.280Z,9.50
2023-01-29T08:57:40.445Z,8.45
2023-01-29T09:00:09.968Z,9.13
2023-01-29T09:02:37.455Z,8.55
2023-01-29T09:05:04.806Z,10.25
2023-01-29T09:07:32.012Z,8.45
2023-01-29T09:09:58.853Z,9.75
2023-01-29T09:12:26.145Z,10.50
2023-01-29T09:14:53.101Z,8.60
2023-01-29T09:17:20.099Z,9.38
2023-01-29T09:19:47.005Z,9.80
2023-01-29T09:22:14.098Z,9.10
2023-01-29T09:24:41.075Z,9.27
2023-01-29T09:27:08.074Z,8.65
2023-01-29T09:29:36.045Z,9.93
2023-01-29T09:32:05.263Z,9.32
2023-01-29T09:34:34.362Z,9.32
2023-01-29T09:37:01.398Z,8.88
2023-01-29T09:39:28.504Z,8.07
2023-01-29T09:42:48.586Z,9.82
2023-01-29T09:45:27.636Z,8.73
2023-01-29T09:48:02.903Z,9.52
2023-01-29T09:50:41.383Z,9.70
2023-01-29T09:53:26.848Z,9.02
2023-01-29T09:56:06.048Z,9.20
2023-01-29T09:58:38.679Z,8.85
2023-01-29T10:01:11.598Z,8.02
2023-01-29T10:03:50.551Z,9.63
2023-01-29T10:06:23.475Z,8.57
2023-01-29T10:09:20.311Z,10.02
2023-01-29T10:12:07.046Z,9.90
2023-01-29T10:14:59.163Z,9.02
2023-01-29T10:17:33.150Z,8.40
2023-01-29T10:20:18.410Z,9.55
2023-01-29T10:23:00.475Z,9.25
2023-01-29T10:25:27.788Z,9.82
2023-01-29T10:27:58.294Z,9.60
2023-01-29T10:30:33.339Z,9.20
2023-01-29T10:33:03.824Z,8.18
2023-01-29T10:35:39.403Z,9.95
2023-01-29T10:38:31.798Z,10.32
2023-01-29T10:41:11.319Z,10.20
2023-01-29T10:43:57.538Z,9.10
2023-01-29T10:46:45.689Z,10.77
2023-01-29T10:49:29.977Z,8.95
2023-01-29T10:52:24.310Z,9.10
2023-01-29T10:55:16.529Z,10.10
2023-01-29T10:58:28.238Z,10.05
2023-01-29T11:00:55.126Z,9.20
2023-01-29T11:03:28.319Z,9.88
2023-01-29T11:05:58.914Z,9.65
2023-01-29T11:08:40.602Z,9.30
2023-01-29T11:11:14.613Z,9.43
2023-01-29T11:14:19.944Z,8.10
2023-01-29T11:19:16.046Z,9.18
2023-01-29T11:21:57.788Z,9.20
2023-01-29T11:24:25.348Z,9.10
2023-01-29T11:26:55.256Z,8.57
2023-01-29T11:29:50.299Z,8.50
2023-01-29T11:35:16.480Z,8.38
2023-01-29T11:37:46.706Z,9.75
2023-01-29T11:40:19.584Z,9.40
2023-01-29T11:42:47.491Z,9.45
2023-01-29T11:45:20.518Z,9.35
2023-01-29T11:47:53.970Z,9.35
2023-01-29T11:50:25.519Z,9.50
2023-01-29T11:52:52.841Z,8.98
2023-01-29T11:55:25.999Z,9.82
2023-01-29T11:57:54.383Z,9.88
2023-01-29T12:00:31.385Z,8.68
2023-01-29T12:03:24.596Z,8.82
2023-01-29T12:06:17.648Z,9.13
2023-01-29T12:08:44.659Z,8.90
2023-01-29T12:11:32.761Z,9.77
2023-01-29T12:14:03.044Z,9.80
2023-01-29T12:16:43.037Z,10.18
2023-01-29T12:19:14.905Z,9.00
2023-01-29T12:21:50.910Z,8.90
2023-01-29T12:24:43.101Z,10.15
2023-01-29T12:27:26.978Z,9.45
2023-01-29T12:30:09.362Z,9.43
2023-01-29T12:32:49.955Z,8.57
2023-01-29T12:35:34.494Z,9.75
2023-01-29T12:38:17.847Z,10.02
2023-01-29T12:41:08.513Z,9.85
2023-01-29T12:43:45.395Z,10.45
2023-01-29T12:46:41.538Z,10.23
2023-01-29T12:49:19.261Z,8.93
2023-01-29T12:52:07.439Z,9.57
2023-01-29T12:54:39.629Z,9.23
2023-01-29T12:57:19.676Z,11.13
2023-01-29T12:59:54.473Z,10.85
2023-01-29T13:02:36.643Z,10.10
2023-01-29T13:05:23.777Z,10.25
2023-01-29T13:08:28.987Z,8.90
2023-01-29T13:11:00.977Z,8.77
2023-01-29T13:13:36.830Z,8.85
2023-01-29T13:16:12.296Z,9.85
2023-01-29T13:19:06.325Z,10.80
2023-01-29T13:21:40.850Z,10.68
2023-01-29T13:24:19.166Z,10.50
2023-01-29T13:26:47.863Z,9.85
2023-01-29T13:29:29.554Z,10.20
2023-01-29T13:31:58.526Z,10.98
2023-01-29T13:34:35.422Z,11.02
2023-01-29T13:37:09.725Z,9.00
2023-01-29T13:42:25.430Z,9.40
2023-01-29T13:44:57.809Z,10.07
2023-01-29T13:47:28.391Z,10.77
2023-01-29T13:50:07.818Z,10.25
2023-01-29T13:52:45.339Z,10.95
2023-01-29T13:55:15.553Z,9.30
2023-01-29T13:57:46.199Z,10.25
2023-01-29T14:00:22.297Z,10.95
2023-01-29T14:03:11.696Z,10.57
2023-01-29T14:05:55.112Z,10.32
2023-01-29T14:08:44.937Z,12.98
2023-01-29T14:11:17.926Z,11.88
2023-01-29T14:13:49.924Z,10.82
2023-01-29T14:16:16.796Z,10.40
2023-01-29T14:18:57.196Z,12.60
2023-01-29T14:21:31.817Z,12.68
2023-01-29T14:24:22.368Z,13.05
2023-01-29T14:26:53.955Z,11.73
2023-01-29T14:29:35.467Z,13.90
2023-01-29T14:32:11.347Z,12.27
2023-01-29T14:35:10.269Z,13.27
2023-01-29T14:37:40.641Z,12.75
2023-01-29T14:40:19.640Z,11.32
2023-01-29T14:43:09.029Z,12.48
2023-01-29T14:45:41.939Z,13.43
2023-01-29T14:48:12.115Z,13.73
2023-01-29T14:50:46.324Z,13.02
2023-01-29T14:53:41.299Z,14.43
2023-01-29T14:59:13.942Z,13.05
2023-01-29T15:01:48.318Z,13.68
2023-01-29T15:04:29.887Z,15.45
2023-01-29T15:07:07.053Z,13.27
2023-01-29T15:09:40.951Z,12.45
2023-01-29T15:12:27.929Z,14.20
2023-01-29T15:15:24.311Z,15.30
2023-01-29T15:17:57.406Z,14.15
2023-01-29T15:20:36.274Z,14.77
2023-01-29T15:23:04.774Z,15.43
2023-01-29T15:25:36.747Z,14.82
2023-01-29T15:28:08.818Z,13.68
2023-01-29T15:30:37.786Z,15.25
2023-01-29T15:33:10.552Z,16.00
2023-01-29T15:35:42.216Z,15.48
2023-01-29T15:38:22.745Z,15.23
2023-01-29T15:40:56.932Z,16.15
2023-01-29T15:43:34.895Z,16.30
2023-01-29T15:46:05.554Z,15.50
2023-01-29T15:48:41.073Z,15.20
2023-01-29T15:51:11.910Z,15.27
2023-01-29T15:53:53.871Z,14.50
2023-01-29T15:56:29.456Z,16.20
2023-01-29T15:58:58.942Z,16.27
2023-01-29T16:01:29.797Z,16.80
2023-01-29T16:04:03.282Z,15.57
2023-01-29T16:06:38.925Z,17.20
2023-01-29T16:09:07.418Z,16.27
2023-01-29T16:11:37.837Z,17.60
2023-01-29T16:14:06.607Z,16.17
2023-01-29T16:16:33.725Z,14.90
2023-01-29T16:19:01.482Z,15.70
2023-01-29T16:21:38.002Z,14.40
2023-01-29T16:24:17.868Z,15.35
2023-01-29T16:26:50.633Z,15.82
2023-01-29T16:29:21.437Z,15.23
2023-01-29T16:31:53.641Z,15.63
2023-01-29T16:34:20.542Z,15.35
2023-01-29T16:36:48.663Z,14.77
2023-01-29T16:39:28.129Z,15.60
2023-01-29T16:42:10.813Z,14.35
2023-01-29T16:44:45.620Z,15.65
2023-01-29T16:47:26.004Z,16.05
2023-01-29T16:50:26.371Z,15.77
2023-01-29T16:53:13.201Z,15.68
2023-01-29T16:55:45.606Z,14.52
2023-01-29T16:58:21.891Z,15.90
2023-01-29T17:00:53.389Z,15.35
2023-01-29T17:03:21.156Z,15.90
2023-01-29T17:05:48.364Z,14.27
2023-01-29T17:08:23.422Z,14.05
2023-01-29T17:10:50.827Z,15.95
2023-01-29T17:13:42.923Z,15.15
2023-01-29T17:16:30.184Z,15.23
2023-01-29T17:18:57.859Z,15.02
2023-01-29T17:21:25.039Z,15.30
2023-01-29T17:23:52.670Z,14.45
2023-01-29T17:26:20.533Z,15.95
2023-01-29T17:28:50.268Z,15.52
2023-01-29T17:31:17.248Z,13.95
2023-01-29T17:33:44.929Z,15.77
2023-01-29T17:36:15.129Z,14.85
2023-01-29T17:38:42.158Z,14.18
2023-01-29T17:41:30.438Z,14.02
2023-01-29T17:43:57.307Z,15.65
2023-01-29T17:46:24.145Z,13.52
2023-01-29T17:48:50.990Z,15.00
2023-01-29T17:51:23.409Z,15.23
2023-01-29T17:53:51.458Z,14.07
2023-01-29T17:56:29.516Z,13.57
2023-01-29T17:58:56.480Z,11.18
2023-01-29T18:01:23.451Z,14.90
2023-01-29T18:03:53.278Z,15.25
2023-01-29T18:06:29.245Z,14.85
2023-01-29T18:08:56.848Z,14.98
2023-01-29T18:11:24.061Z,14.40
2023-01-29T18:13:51.523Z,15.88
2023-01-29T18:16:18.549Z,12.50
2023-01-29T18:18:45.564Z,14.48
2023-01-29T18:21:12.387Z,13.23
2023-01-29T18:23:39.279Z,14.50
2023-01-29T18:26:07.534Z,13.85
2023-01-29T18:28:34.353Z,14.73
2023-01-29T18:31:02.409Z,13.57
2023-01-29T18:33:29.389Z,14.15
2023-01-29T18:35:56.990Z,14.02
2023-01-29T18:38:24.434Z,15.23
2023-01-29T18:40:51.416Z,14.60
2023-01-29T18:43:18.276Z,13.50
2023-01-29T18:45:45.161Z,13.00
2023-01-29T18:48:12.389Z,13.70
2023-01-29T18:50:39.234Z,14.50
2023-01-29T18:53:06.104Z,14.20
2023-01-29T18:55:33.807Z,14.02
2023-01-29T18:58:27.779Z,15.30
2023-01-29T19:00:47.782Z,15.40
2023-01-29T19:03:14.772Z,14.05
2023-01-29T19:05:41.805Z,13.98
2023-01-29T19:08:09.113Z,13.85
2023-01-29T19:10:36.433Z,14.45
2023-01-29T19:13:05.804Z,13.82
2023-01-29T19:15:34.118Z,15.20
2023-01-29T19:18:01.010Z,15.27
2023-01-29T19:20:28.103Z,15.35
2023-01-29T19:22:54.960Z,13.85
2023-01-29T19:25:21.986Z,13.38
2023-01-29T19:27:48.839Z,14.60
2023-01-29T19:30:16.153Z,16.00
2023-01-29T19:32:43.034Z,14.45
2023-01-29T19:35:09.860Z,13.30
2023-01-29T19:37:36.697Z,15.10
2023-01-29T19:40:04.046Z,15.23
2023-01-29T19:42:30.998Z,14.82
2023-01-29T19:44:57.881Z,13.52
2023-01-29T19:47:24.946Z,14.93
2023-01-29T19:49:51.906Z,14.07
2023-01-29T19:52:49.840Z,14.50
2023-01-29T19:55:19.195Z,13.63
2023-01-29T19:57:46.775Z,13.13
2023-01-29T20:00:15.474Z,16.00
2023-01-29T20:02:42.428Z,14.77
2023-01-29T20:05:12.045Z,14.48
2023-01-29T20:07:41.273Z,13.00
2023-01-29T20:10:11.381Z,13.98
2023-01-29T20:12:38.651Z,13.77
2023-01-29T20:15:07.332Z,15.57
2023-01-29T20:17:34.283Z,13.38
2023-01-29T20:20:01.308Z,12.98
2023-01-29T20:22:29.735Z,13.50
2023-01-29T20:24:56.812Z,13.32
2023-01-29T20:27:24.086Z,13.48
2023-01-29T20:29:52.538Z,13.75
2023-01-29T20:32:19.532Z,16.27
2023-01-29T20:34:51.771Z,13.63
2023-01-29T20:37:19.402Z,13.65
2023-01-29T20:39:46.718Z,11.90
2023-01-29T20:42:13.825Z,13.43
2023-01-29T20:44:40.670Z,13.73
2023-01-29T20:47:08.447Z,11.77
2023-01-29T20:49:35.393Z,13.52
2023-01-29T20:52:02.264Z,13.63
2023-01-29T20:54:30.008Z,13.50
2023-01-29T20:56:57.182Z,12.27
2023-01-29T20:59:24.136Z,13.52
2023-01-29T21:01:51.074Z,12.35
2023-01-29T21:04:17.969Z,12.95
2023-01-29T21:06:44.870Z,12.07
2023-01-29T21:09:11.684Z,12.93
2023-01-29T21:11:38.721Z,12.52
2023-01-29T21:14:05.678Z,13.40
2023-01-29T21:16:32.713Z,11.82
2023-01-29T21:19:00.098Z,13.05
2023-01-29T21:21:27.385Z,12.57
2023-01-29T21:23:54.714Z,13.77
2023-01-29T21:26:23.322Z,12.38
2023-01-29T21:28:50.361Z,13.48
2023-01-29T21:31:17.743Z,13.23
2023-01-29T21:33:44.744Z,12.40
2023-01-29T21:36:12.372Z,12.23
2023-01-29T21:38:39.952Z,12.27
2023-01-29T21:41:14.454Z,13.73
2023-01-29T21:43:41.320Z,10.98
2023-01-29T21:46:12.271Z,11.50
2023-01-29T21:48:40.277Z,13.35
2023-01-29T21:51:07.436Z,13.95
2023-01-29T21:53:34.862Z,12.02
2023-01-29T21:56:03.609Z,13.07
2023-01-29T21:58:31.352Z,13.43
2023-01-29T22:01:35.908Z,12.95
2023-01-29T22:03:47.904Z,12.65
2023-01-29T22:06:15.400Z,11.93
2023-01-29T22:08:42.476Z,12.00
2023-01-29T22:11:10.351Z,13.75
2023-01-29T22:13:37.327Z,12.57
2023-01-29T22:16:05.800Z,14.02
2023-01-29T22:18:33.328Z,12.77
2023-01-29T22:21:02.774Z,12.13
2023-01-29T22:23:30.819Z,14.05
2023-01-29T22:26:05.721Z,13.65
2023-01-29T22:28:32.869Z,13.63
2023-01-29T22:31:04.228Z,13.70
2023-01-29T22:33:31.354Z,13.48
2023-01-29T22:35:58.176Z,12.45
2023-01-29T22:38:25.560Z,12.93
2023-01-29T22:40:53.955Z,12.88
2023-01-29T22:43:21.332Z,12.85
2023-01-29T22:45:48.708Z,12.50
2023-01-29T22:48:15.588Z,13.75
2023-01-29T22:50:42.408Z,13.38
2023-01-29T22:53:09.635Z,12.32
2023-01-29T22:55:36.756Z,13.10
2023-01-29T22:58:03.551Z,12.05
2023-01-29T23:00:30.430Z,12.25
2023-01-29T23:02:57.263Z,12.23
2023-01-29T23:05:24.115Z,11.95
2023-01-29T23:07:50.992Z,13.52
2023-01-29T23:10:18.150Z,13.95
2023-01-29T23:12:45.153Z,11.88
2023-01-29T23:15:11.966Z,13.45
2023-01-29T23:17:39.663Z,12.20
2023-01-29T23:20:07.231Z,12.65
2023-01-29T23:22:34.075Z,12.30
2023-01-29T23:25:02.828Z,12.95
2023-01-29T23:27:29.656Z,12.05
2023-01-29T23:29:56.588Z,13.10
2023-01-29T23:32:23.443Z,14.90
2023-01-29T23:34:50.297Z,11.52
2023-01-29T23:37:17.171Z,11.85
2023-01-29T23:39:44.082Z,13.38
2023-01-29T23:42:10.987Z,14.07
2023-01-29T23:44:37.861Z,11.98
2023-01-29T23:47:04.756Z,13.05
2023-01-29T23:49:31.875Z,11.48
2023-01-29T23:51:58.781Z,11.32
2023-01-29T23:54:25.722Z,13.48
2023-01-29T23:56:54.987Z,13.15
2023-01-29T23:59:21.912Z,12.35
